createdAt,value
2023-10-18T04:15:22.896Z,34.10
2023-10-18T04:16:22.866Z,32.90
2023-10-18T04:17:22.785Z,33.20
2023-10-18T04:18:22.771Z,32.40
2023-10-18T04:19:22.813Z,29.80
2023-10-18T04:20:22.747Z,32.50
2023-10-18T04:21:22.726Z,31.90
2023-10-18T04:22:22.716Z,31.60
2023-10-18T04:23:22.721Z,31.80
2023-10-18T04:24:22.693Z,33.40
2023-10-18T04:25:22.723Z,33.30
2023-10-18T04:26:22.679Z,32.70
2023-10-18T04:27:22.647Z,32.60
2023-10-18T04:28:22.657Z,31.70
2023-10-18T04:29:22.667Z,33.80
2023-10-18T04:30:22.627Z,36.00
2023-10-18T04:31:23.229Z,31.70
2023-10-18T04:32:22.591Z,31.20
2023-10-18T04:33:22.613Z,32.80
2023-10-18T04:34:22.611Z,30.40
2023-10-18T04:35:22.546Z,32.80
2023-10-18T04:36:22.530Z,34.20
2023-10-18T04:37:22.593Z,31.60
2023-10-18T04:38:22.510Z,33.90
2023-10-18T04:39:22.507Z,34.20
2023-10-18T04:40:22.537Z,32.80
2023-10-18T04:41:22.477Z,32.80
2023-10-18T04:42:22.466Z,32.20
2023-10-18T04:43:22.482Z,34.70
2023-10-18T04:44:22.449Z,34.70
2023-10-18T04:45:22.421Z,34.20
2023-10-18T04:46:22.458Z,30.00
2023-10-18T04:47:22.393Z,33.10
2023-10-18T04:48:22.393Z,29.40
2023-10-18T04:49:22.371Z,31.10
2023-10-18T04:50:22.357Z,30.80
2023-10-18T04:51:22.339Z,32.40
2023-10-18T04:52:22.356Z,32.40
2023-10-18T04:53:22.341Z,31.90
2023-10-18T04:54:22.301Z,31.40
2023-10-18T04:55:22.316Z,35.60
2023-10-18T04:56:22.279Z,34.80
2023-10-18T04:57:22.284Z,33.70
2023-10-18T04:58:22.272Z,35.10
2023-10-18T04:59:22.234Z,33.00
2023-10-18T05:00:22.223Z,34.00
2023-10-18T05:01:22.246Z,33.40
2023-10-18T05:02:22.211Z,34.70
2023-10-18T05:03:22.204Z,35.00
2023-10-18T05:04:22.271Z,32.20
2023-10-18T05:05:22.160Z,30.90
2023-10-18T05:06:22.148Z,31.50
2023-10-18T05:07:22.205Z,34.60
2023-10-18T05:08:22.128Z,35.40
2023-10-18T05:09:22.116Z,33.30
2023-10-18T05:10:25.530Z,36.30
2023-10-18T05:11:30.159Z,35.50
2023-10-18T05:12:22.091Z,62.20
2023-10-18T05:13:22.091Z,54.30
2023-10-18T05:14:22.047Z,54.20
2023-10-18T05:15:22.032Z,50.60
2023-10-18T05:16:22.129Z,37.10
2023-10-18T05:17:22.025Z,29.20
2023-10-18T05:18:21.999Z,27.90
2023-10-18T05:19:22.012Z,31.70
2023-10-18T05:20:21.972Z,25.20
2023-10-18T05:21:22.011Z,26.10
2023-10-18T05:22:22.034Z,28.00
2023-10-18T05:23:21.929Z,27.00
2023-10-18T05:24:21.926Z,26.40
2023-10-18T05:25:22.001Z,25.10
2023-10-18T05:26:21.915Z,22.20
2023-10-18T05:27:21.875Z,23.60
2023-10-18T05:28:21.923Z,22.70
2023-10-18T05:29:21.864Z,24.20
2023-10-18T05:30:21.856Z,26.20
2023-10-18T05:31:21.912Z,22.60
2023-10-18T05:32:29.981Z,23.40
2023-10-18T05:33:22.877Z,23.00
2023-10-18T05:34:21.887Z,22.50
2023-10-18T05:35:21.794Z,24.70
2023-10-18T05:36:21.774Z,19.90
2023-10-18T05:37:21.777Z,21.40
2023-10-18T05:38:21.750Z,23.00
2023-10-18T05:39:21.746Z,22.60
2023-10-18T05:40:21.762Z,18.60
2023-10-18T05:41:21.701Z,23.60
2023-10-18T05:42:21.715Z,21.80
2023-10-18T05:43:21.699Z,22.50
2023-10-18T05:44:21.678Z,25.60
2023-10-18T05:45:21.657Z,19.40
2023-10-18T05:46:21.963Z,19.00
2023-10-18T05:47:21.625Z,21.70
2023-10-18T05:48:21.614Z,23.40
2023-10-18T05:49:21.639Z,20.50
2023-10-18T05:50:21.591Z,19.40
2023-10-18T05:51:34.764Z,20.50
2023-10-18T05:52:22.579Z,20.40
2023-10-18T05:53:21.550Z,25.30
2023-10-18T05:54:21.543Z,21.70
2023-10-18T05:55:21.568Z,22.50
2023-10-18T05:56:21.505Z,23.10
2023-10-18T05:57:21.495Z,23.10
2023-10-18T05:58:21.503Z,25.40
2023-10-18T05:59:21.968Z,28.00
2023-10-18T06:00:21.461Z,23.50
2023-10-18T06:01:21.506Z,25.10
2023-10-18T06:02:21.506Z,28.40
2023-10-18T06:03:21.472Z,26.70
2023-10-18T06:04:21.435Z,27.20
2023-10-18T06:05:21.395Z,29.10
2023-10-18T06:06:21.371Z,26.30
2023-10-18T06:07:23.385Z,28.40
2023-10-18T06:08:21.362Z,30.00
2023-10-18T06:09:21.341Z,28.70
2023-10-18T06:10:21.369Z,29.20
2023-10-18T06:11:21.314Z,30.50
2023-10-18T06:12:21.316Z,34.80
2023-10-18T06:13:21.312Z,26.70
2023-10-18T06:14:21.270Z,30.30
2023-10-18T06:15:21.264Z,34.00
2023-10-18T06:16:21.356Z,29.00
2023-10-18T06:17:21.300Z,32.50
2023-10-18T06:18:21.369Z,35.90
2023-10-18T06:19:21.248Z,31.30
2023-10-18T06:20:21.202Z,33.20
2023-10-18T06:21:21.256Z,29.70
2023-10-18T06:22:21.199Z,34.10
2023-10-18T06:23:21.194Z,30.20
2023-10-18T06:24:21.142Z,29.50
2023-10-18T06:25:21.170Z,29.80
2023-10-18T06:26:21.133Z,28.50
2023-10-18T06:27:21.113Z,29.00
2023-10-18T06:28:21.805Z,28.40
2023-10-18T06:29:21.102Z,28.20
2023-10-18T06:30:21.074Z,32.90
2023-10-18T06:31:23.233Z,32.40
2023-10-18T06:32:21.075Z,30.10
2023-10-18T06:33:21.037Z,27.40
2023-10-18T06:34:21.057Z,29.40
2023-10-18T06:35:21.083Z,30.00
2023-10-18T06:36:21.008Z,30.40
2023-10-18T06:37:21.012Z,29.30
2023-10-18T06:38:20.976Z,25.80
2023-10-18T06:39:20.962Z,27.30
2023-10-18T06:40:20.985Z,29.20
2023-10-18T06:41:20.954Z,27.90
2023-10-18T06:42:20.922Z,30.30
2023-10-18T06:43:20.998Z,28.50
2023-10-18T06:44:20.901Z,27.60
2023-10-18T06:45:20.908Z,25.40
2023-10-18T06:46:20.906Z,33.50
2023-10-18T06:47:20.861Z,27.30
2023-10-18T06:48:20.860Z,27.80
2023-10-18T06:49:20.865Z,29.40
2023-10-18T06:50:21.286Z,28.40
2023-10-18T06:51:20.847Z,31.70
2023-10-18T06:52:20.823Z,27.30
2023-10-18T06:53:20.797Z,30.10
2023-10-18T06:54:20.786Z,30.80
2023-10-18T06:55:20.786Z,27.40
2023-10-18T06:56:20.891Z,23.60
2023-10-18T06:57:20.737Z,25.70
2023-10-18T06:58:20.736Z,29.80
2023-10-18T06:59:20.736Z,28.40
2023-10-18T07:00:20.705Z,28.30
2023-10-18T07:01:20.802Z,26.40
2023-10-18T07:02:20.688Z,31.90
2023-10-18T07:03:20.729Z,32.00
2023-10-18T07:04:20.676Z,32.30
2023-10-18T07:05:20.633Z,26.10
2023-10-18T07:06:20.765Z,27.90
2023-10-18T07:07:20.647Z,29.20
2023-10-18T07:08:20.618Z,27.40
2023-10-18T07:09:20.590Z,25.00
2023-10-18T07:10:20.600Z,27.40
2023-10-18T07:11:28.760Z,28.50
2023-10-18T07:12:21.542Z,24.00
2023-10-18T07:13:20.605Z,25.00
2023-10-18T07:14:20.525Z,25.20
2023-10-18T07:15:20.513Z,23.30
2023-10-18T07:16:20.585Z,25.30
2023-10-18T07:17:20.487Z,23.90
2023-10-18T07:18:20.505Z,23.50
2023-10-18T07:19:20.539Z,30.60
2023-10-18T07:20:20.465Z,25.70
2023-10-18T07:21:20.508Z,22.80
2023-10-18T07:22:20.516Z,24.30
2023-10-18T07:23:20.456Z,22.80
2023-10-18T07:24:20.398Z,25.40
2023-10-18T07:25:20.796Z,23.10
2023-10-18T07:26:20.379Z,23.30
2023-10-18T07:27:20.360Z,25.10
2023-10-18T07:28:20.394Z,24.90
2023-10-18T07:29:20.324Z,24.30
2023-10-18T07:30:20.328Z,19.20
2023-10-18T07:31:20.358Z,20.50
2023-10-18T07:32:20.387Z,21.00
2023-10-18T07:33:20.339Z,19.40
2023-10-18T07:34:20.474Z,19.00
2023-10-18T07:35:20.248Z,19.90
2023-10-18T07:36:20.246Z,20.40
2023-10-18T07:37:20.382Z,22.90
2023-10-18T07:38:20.202Z,20.90
2023-10-18T07:39:20.198Z,20.40
2023-10-18T07:40:20.199Z,22.20
2023-10-18T07:41:20.182Z,20.30
2023-10-18T07:42:20.280Z,18.50
2023-10-18T07:43:20.159Z,21.20
2023-10-18T07:44:20.133Z,19.60
2023-10-18T07:45:20.117Z,17.20
2023-10-18T07:46:20.279Z,19.10
2023-10-18T07:47:20.093Z,18.20
2023-10-18T07:48:20.105Z,18.50
2023-10-18T07:49:20.250Z,18.70
2023-10-18T07:50:20.054Z,18.10
2023-10-18T07:51:20.053Z,18.40
2023-10-18T07:52:20.050Z,20.50
2023-10-18T07:53:20.016Z,18.00
2023-10-18T07:54:20.000Z,17.00
2023-10-18T07:55:20.021Z,17.00
2023-10-18T07:56:19.982Z,19.90
2023-10-18T07:57:19.961Z,16.60
2023-10-18T07:58:19.988Z,17.40
2023-10-18T07:59:19.979Z,17.60
2023-10-18T08:00:19.938Z,14.90
2023-10-18T08:01:19.974Z,16.70
2023-10-18T08:02:19.889Z,17.20
2023-10-18T08:03:19.959Z,16.70
2023-10-18T08:04:19.964Z,19.30
2023-10-18T08:05:20.366Z,18.70
2023-10-18T08:06:19.844Z,18.80
2023-10-18T08:07:20.104Z,14.40
2023-10-18T08:08:19.845Z,15.50
2023-10-18T08:09:19.835Z,18.00
2023-10-18T08:10:19.864Z,16.90
2023-10-18T08:11:19.798Z,12.10
2023-10-18T08:12:19.768Z,15.30
2023-10-18T08:13:19.824Z,16.90
2023-10-18T08:14:19.750Z,14.00
2023-10-18T08:15:19.725Z,18.10
2023-10-18T08:16:19.735Z,16.70
2023-10-18T08:17:19.714Z,18.90
2023-10-18T08:18:19.690Z,13.50
2023-10-18T08:19:19.701Z,12.90
2023-10-18T08:20:19.694Z,16.10
2023-10-18T08:21:19.652Z,15.60
2023-10-18T08:22:21.515Z,16.50
2023-10-18T08:23:19.639Z,14.70
2023-10-18T08:24:19.639Z,15.60
2023-10-18T08:25:19.669Z,14.50
2023-10-18T08:26:19.588Z,14.90
2023-10-18T08:27:19.582Z,14.50
2023-10-18T08:28:19.624Z,14.70
2023-10-18T08:29:19.556Z,15.80
2023-10-18T08:30:19.534Z,14.40
2023-10-18T08:31:19.534Z,15.60
2023-10-18T08:32:19.510Z,13.60
2023-10-18T08:33:19.503Z,16.40
2023-10-18T08:34:19.635Z,17.10
2023-10-18T08:35:19.466Z,18.80
2023-10-18T08:36:19.470Z,17.40
2023-10-18T08:37:19.460Z,15.50
2023-10-18T08:38:19.441Z,14.30
2023-10-18T08:39:19.411Z,13.90
2023-10-18T08:40:19.428Z,14.40
2023-10-18T08:41:19.397Z,15.70
2023-10-18T08:42:19.381Z,14.20
2023-10-18T08:43:19.383Z,16.30
2023-10-18T08:44:19.363Z,15.90
2023-10-18T08:45:19.334Z,13.10
2023-10-18T08:46:19.395Z,11.80
2023-10-18T08:47:19.357Z,11.80
2023-10-18T08:48:19.324Z,19.10
2023-10-18T08:49:19.322Z,17.50
2023-10-18T08:50:19.273Z,13.80
2023-10-18T08:51:19.271Z,13.80
2023-10-18T08:52:19.318Z,18.40
2023-10-18T08:53:19.234Z,12.70
2023-10-18T08:54:19.221Z,13.60
2023-10-18T08:55:19.260Z,13.30
2023-10-18T08:56:19.216Z,17.60
2023-10-18T08:57:19.198Z,13.80
2023-10-18T08:58:19.255Z,11.10
2023-10-18T08:59:19.154Z,14.90
2023-10-18T09:00:19.157Z,12.10
2023-10-18T09:01:19.193Z,12.60
2023-10-18T09:02:19.299Z,13.10
2023-10-18T09:03:19.168Z,10.70
2023-10-18T09:04:19.183Z,14.20
2023-10-18T09:05:19.081Z,11.70
2023-10-18T09:06:19.073Z,13.00
2023-10-18T09:07:19.100Z,14.70
2023-10-18T09:08:19.043Z,13.20
2023-10-18T09:09:19.034Z,12.70
2023-10-18T09:10:19.127Z,11.40
2023-10-18T09:11:19.043Z,11.90
2023-10-18T09:12:18.991Z,14.40
2023-10-18T09:13:19.993Z,12.40
2023-10-18T09:14:19.030Z,10.00
2023-10-18T09:15:18.980Z,12.90
2023-10-18T09:16:18.995Z,14.20
2023-10-18T09:17:18.992Z,11.50
2023-10-18T09:18:18.910Z,11.90
2023-10-18T09:19:18.926Z,11.90
2023-10-18T09:20:18.906Z,10.90
2023-10-18T09:21:19.335Z,9.70
2023-10-18T09:22:18.935Z,10.20
2023-10-18T09:23:18.856Z,11.40
2023-10-18T09:24:18.848Z,10.40
2023-10-18T09:25:18.881Z,11.60
2023-10-18T09:26:18.800Z,14.50
2023-10-18T09:27:18.786Z,9.50
2023-10-18T09:28:18.833Z,10.80
2023-10-18T09:29:18.769Z,8.80
2023-10-18T09:30:18.754Z,11.40
2023-10-18T09:31:20.964Z,11.80
2023-10-18T09:32:18.770Z,9.80
2023-10-18T09:33:18.730Z,10.80
2023-10-18T09:34:18.722Z,9.60
2023-10-18T09:35:18.686Z,9.80
2023-10-18T09:36:18.672Z,9.90
2023-10-18T09:37:18.749Z,10.20
2023-10-18T09:38:18.662Z,11.80
2023-10-18T09:39:18.627Z,11.60
2023-10-18T09:40:18.653Z,11.30
2023-10-18T09:41:18.605Z,8.90
2023-10-18T09:42:18.593Z,9.50
2023-10-18T09:43:18.637Z,10.20
2023-10-18T09:44:20.603Z,9.90
2023-10-18T09:45:18.558Z,9.90
2023-10-18T09:46:18.607Z,11.40
2023-10-18T09:47:18.605Z,8.40
2023-10-18T09:48:18.524Z,8.30
2023-10-18T09:49:18.574Z,10.80
2023-10-18T09:50:18.505Z,9.50
2023-10-18T09:51:18.469Z,9.70
2023-10-18T09:52:18.521Z,9.40
2023-10-18T09:53:18.445Z,9.70
2023-10-18T09:54:18.456Z,10.80
2023-10-18T09:55:18.437Z,10.20
2023-10-18T09:56:18.417Z,12.70
2023-10-18T09:57:18.403Z,10.00
2023-10-18T09:58:18.451Z,10.90
2023-10-18T09:59:18.388Z,9.10
2023-10-18T10:00:18.365Z,10.10
2023-10-18T10:01:18.436Z,8.00
2023-10-18T10:02:18.417Z,10.60
2023-10-18T10:03:18.418Z,8.80
2023-10-18T10:04:18.322Z,12.90
2023-10-18T10:05:18.293Z,9.30
2023-10-18T10:06:18.288Z,11.60
2023-10-18T10:07:18.355Z,11.30
2023-10-18T10:08:18.251Z,8.70
2023-10-18T10:09:18.252Z,10.70
2023-10-18T10:10:18.267Z,12.60
2023-10-18T10:11:18.235Z,11.00
2023-10-18T10:12:18.228Z,11.70
2023-10-18T10:13:18.228Z,11.40
2023-10-18T10:14:18.186Z,9.90
2023-10-18T10:15:18.194Z,10.60
2023-10-18T10:16:18.205Z,8.70
2023-10-18T10:17:18.164Z,10.40
2023-10-18T10:18:18.123Z,8.00
2023-10-18T10:19:18.132Z,10.40
2023-10-18T10:20:18.105Z,10.10
2023-10-18T10:21:18.087Z,10.80
2023-10-18T10:22:18.091Z,9.30
2023-10-18T10:23:18.077Z,9.80
2023-10-18T10:24:18.042Z,9.10
2023-10-18T10:25:26.238Z,12.20
2023-10-18T10:26:32.956Z,8.30
2023-10-18T10:27:19.010Z,10.80
2023-10-18T10:28:18.009Z,9.40
2023-10-18T10:29:17.999Z,10.60
2023-10-18T10:30:17.978Z,13.10
2023-10-18T10:31:18.014Z,9.00
2023-10-18T10:32:17.941Z,9.60
2023-10-18T10:33:17.935Z,8.10
2023-10-18T10:34:17.951Z,8.50
2023-10-18T10:35:17.906Z,10.00
2023-10-18T10:36:17.923Z,12.00
2023-10-18T10:37:17.881Z,8.40
2023-10-18T10:38:17.893Z,10.00
2023-10-18T10:39:17.867Z,12.20
2023-10-18T10:40:17.859Z,9.50
2023-10-18T10:41:17.836Z,10.80
2023-10-18T10:42:17.815Z,11.30
2023-10-18T10:43:17.865Z,8.00
2023-10-18T10:44:17.800Z,11.00
2023-10-18T10:45:17.798Z,11.60
2023-10-18T10:46:17.819Z,11.10
2023-10-18T10:47:17.778Z,9.70
2023-10-18T10:48:17.761Z,10.90
2023-10-18T10:49:17.759Z,9.30
2023-10-18T10:50:17.730Z,9.90
2023-10-18T10:51:17.703Z,7.50
2023-10-18T10:52:17.703Z,9.00
2023-10-18T10:53:17.694Z,10.10
2023-10-18T10:54:17.659Z,9.20
2023-10-18T10:55:17.709Z,10.20
2023-10-18T10:56:17.632Z,7.60
2023-10-18T10:57:17.643Z,10.30
2023-10-18T10:58:17.728Z,9.20
2023-10-18T10:59:17.601Z,10.70
2023-10-18T11:00:17.577Z,11.60
2023-10-18T11:01:17.621Z,8.70
2023-10-18T11:02:17.603Z,8.90
2023-10-18T11:03:17.581Z,8.30
2023-10-18T11:04:17.550Z,9.50
2023-10-18T11:05:17.525Z,9.40
2023-10-18T11:06:17.539Z,7.60
2023-10-18T11:07:17.537Z,10.30
2023-10-18T11:08:17.476Z,8.60
2023-10-18T11:09:17.484Z,8.20
2023-10-18T11:10:17.529Z,9.40
2023-10-18T11:11:17.456Z,7.80
2023-10-18T11:12:24.517Z,9.60
2023-10-18T11:13:17.479Z,8.80
2023-10-18T11:14:17.420Z,8.40
2023-10-18T11:15:17.507Z,6.90
2023-10-18T11:16:17.449Z,7.50
2023-10-18T11:17:17.803Z,7.80
2023-10-18T11:18:17.356Z,9.60
2023-10-18T11:19:17.365Z,8.50
2023-10-18T11:20:17.334Z,8.30
2023-10-18T11:21:17.335Z,9.40
2023-10-18T11:22:17.305Z,13.00
2023-10-18T11:23:17.274Z,8.50
2023-10-18T11:24:17.274Z,8.70
2023-10-18T11:25:17.291Z,8.20
2023-10-18T11:26:17.264Z,11.70
2023-10-18T11:27:17.229Z,10.20
2023-10-18T11:28:18.275Z,8.60
2023-10-18T11:29:17.203Z,8.80
2023-10-18T11:30:17.362Z,8.70
2023-10-18T11:31:17.366Z,13.00
2023-10-18T11:32:17.293Z,8.60
2023-10-18T11:33:17.208Z,8.30
2023-10-18T11:34:17.143Z,10.10
2023-10-18T11:35:19.236Z,8.20
2023-10-18T11:36:17.109Z,8.60
2023-10-18T11:37:17.136Z,9.50
2023-10-18T11:38:17.082Z,10.10
2023-10-18T11:39:17.082Z,6.90
2023-10-18T11:40:17.155Z,9.90
2023-10-18T11:41:17.048Z,9.70
2023-10-18T11:42:17.065Z,9.80
2023-10-18T11:43:17.050Z,7.80
2023-10-18T11:44:17.025Z,6.90
2023-10-18T11:45:16.984Z,9.60
2023-10-18T11:46:17.035Z,7.30
2023-10-18T11:47:16.961Z,8.80
2023-10-18T11:48:16.954Z,8.50
2023-10-18T11:49:16.999Z,8.40
2023-10-18T11:50:16.949Z,7.70
2023-10-18T11:51:16.914Z,8.60
2023-10-18T11:52:16.917Z,8.50
2023-10-18T11:53:16.902Z,9.50
2023-10-18T11:54:16.881Z,10.40
2023-10-18T11:55:16.922Z,9.10
2023-10-18T11:56:16.843Z,9.80
2023-10-18T11:57:16.827Z,7.00
2023-10-18T11:58:16.839Z,6.80
2023-10-18T11:59:16.799Z,8.30
2023-10-18T12:00:16.821Z,7.30
2023-10-18T12:01:16.937Z,7.80
2023-10-18T12:02:16.803Z,8.30
2023-10-18T12:03:16.918Z,7.60
2023-10-18T12:04:17.270Z,6.70
2023-10-18T12:05:18.842Z,7.80
2023-10-18T12:06:16.732Z,8.00
2023-10-18T12:07:16.736Z,8.30
2023-10-18T12:08:16.712Z,9.80
2023-10-18T12:09:16.690Z,15.50
2023-10-18T12:10:16.780Z,23.90
2023-10-18T12:11:16.664Z,8.40
2023-10-18T12:12:16.661Z,8.30
2023-10-18T12:13:16.643Z,6.10
2023-10-18T12:14:16.614Z,8.50
2023-10-18T12:15:16.597Z,6.60
2023-10-18T12:16:16.694Z,8.50
2023-10-18T12:17:16.576Z,6.30
2023-10-18T12:18:16.568Z,6.40
2023-10-18T12:19:16.643Z,6.80
2023-10-18T12:20:16.530Z,7.20
2023-10-18T12:21:16.520Z,7.30
2023-10-18T12:22:16.828Z,8.20
2023-10-18T12:23:17.201Z,7.00
2023-10-18T12:24:16.473Z,7.20
2023-10-18T12:25:16.617Z,8.70
2023-10-18T12:26:16.460Z,7.60
2023-10-18T12:27:16.428Z,10.10
2023-10-18T12:28:16.472Z,8.30
2023-10-18T12:29:16.427Z,6.10
2023-10-18T12:30:30.595Z,8.60
2023-10-18T12:31:17.487Z,6.10
2023-10-18T12:32:16.415Z,6.80
2023-10-18T12:33:16.394Z,5.80
2023-10-18T12:34:16.394Z,7.60
2023-10-18T12:35:16.341Z,6.70
2023-10-18T12:36:16.349Z,6.80
2023-10-18T12:37:16.365Z,5.60
2023-10-18T12:38:16.320Z,7.80
2023-10-18T12:39:16.286Z,6.30
2023-10-18T12:40:16.352Z,5.40
2023-10-18T12:41:16.271Z,3.90
2023-10-18T12:42:16.245Z,5.70
2023-10-18T12:43:16.277Z,5.40
2023-10-18T12:44:16.230Z,5.60
2023-10-18T12:45:16.213Z,4.20
2023-10-18T12:46:16.285Z,5.20
2023-10-18T12:47:16.174Z,5.10
2023-10-18T12:48:16.169Z,5.70
2023-10-18T12:49:16.187Z,3.80
2023-10-18T12:50:16.158Z,5.00
2023-10-18T12:51:16.131Z,3.90
2023-10-18T12:52:16.142Z,3.70
2023-10-18T12:53:16.150Z,5.70
2023-10-18T12:55:16.098Z,4.80
2023-10-18T12:56:16.068Z,6.10
2023-10-18T12:57:16.053Z,4.10
2023-10-18T12:58:16.042Z,5.40
2023-10-18T12:59:16.107Z,6.10
2023-10-18T13:00:16.019Z,5.30
2023-10-18T13:01:16.050Z,5.30
2023-10-18T13:02:16.057Z,7.40
2023-10-18T13:03:16.060Z,4.50
2023-10-18T13:04:15.988Z,5.00
2023-10-18T13:05:16.012Z,6.20
2023-10-18T13:06:15.968Z,4.60
2023-10-18T13:07:15.926Z,5.10
2023-10-18T13:08:15.953Z,7.60
2023-10-18T13:09:15.961Z,7.90
2023-10-18T13:10:15.898Z,4.80
2023-10-18T13:11:16.179Z,6.20
2023-10-18T13:12:15.906Z,5.80
2023-10-18T13:13:15.856Z,4.00
2023-10-18T13:14:15.914Z,4.30
2023-10-18T13:15:15.869Z,7.40
2023-10-18T13:16:15.871Z,8.00
2023-10-18T13:17:15.806Z,5.80
2023-10-18T13:18:15.832Z,5.20
2023-10-18T13:19:15.772Z,7.00
2023-10-18T13:20:15.797Z,5.90
2023-10-18T13:21:15.745Z,5.20
2023-10-18T13:22:15.752Z,5.10
2023-10-18T13:23:15.787Z,8.10
2023-10-18T13:24:15.707Z,7.00
2023-10-18T13:25:15.691Z,4.80
2023-10-18T13:26:15.750Z,5.70
2023-10-18T13:27:15.683Z,7.60
2023-10-18T13:28:15.660Z,5.60
2023-10-18T13:29:15.677Z,5.80
2023-10-18T13:30:15.637Z,6.50
2023-10-18T13:31:15.664Z,4.80
2023-10-18T13:32:15.637Z,6.00
2023-10-18T13:33:15.743Z,7.20
2023-10-18T13:34:15.590Z,6.10
2023-10-18T13:35:15.588Z,5.10
2023-10-18T13:36:15.573Z,6.10
2023-10-18T13:37:15.592Z,6.70
2023-10-18T13:38:15.565Z,4.70
2023-10-18T13:39:15.521Z,5.30
2023-10-18T13:40:15.506Z,6.20
2023-10-18T13:41:15.535Z,5.40
2023-10-18T13:42:15.505Z,6.90
2023-10-18T13:43:15.464Z,7.30
2023-10-18T13:44:15.617Z,7.60
2023-10-18T13:45:15.449Z,5.50
2023-10-18T13:46:15.484Z,6.30
2023-10-18T13:47:15.458Z,8.00
2023-10-18T13:48:15.483Z,7.20
2023-10-18T13:49:15.390Z,7.00
2023-10-18T13:50:16.827Z,7.40
2023-10-18T13:51:15.378Z,5.00
2023-10-18T13:52:15.352Z,3.90
2023-10-18T13:53:15.423Z,6.80
2023-10-18T13:54:15.338Z,5.80
2023-10-18T13:55:15.353Z,6.00
2023-10-18T13:56:15.342Z,7.20
2023-10-18T13:57:15.361Z,5.10
2023-10-18T13:58:15.276Z,10.90
2023-10-18T13:59:15.289Z,7.20
2023-10-18T14:00:15.270Z,6.00
2023-10-18T14:01:15.242Z,8.20
2023-10-18T14:02:15.247Z,9.40
2023-10-18T14:03:15.480Z,8.30
2023-10-18T14:04:15.323Z,8.70
2023-10-18T14:05:15.205Z,7.60
2023-10-18T14:06:15.168Z,7.00
2023-10-18T14:07:15.145Z,6.30
2023-10-18T14:08:15.164Z,6.00
2023-10-18T14:09:15.234Z,5.80
2023-10-18T14:10:15.130Z,6.70
2023-10-18T14:11:15.139Z,4.70
2023-10-18T14:12:15.089Z,5.90
2023-10-18T14:13:15.078Z,7.50
2023-10-18T14:14:15.156Z,8.90
2023-10-18T14:15:15.050Z,5.60
2023-10-18T14:16:15.046Z,6.20
2023-10-18T14:17:15.909Z,6.20
2023-10-18T14:18:15.036Z,5.10
2023-10-18T14:19:15.015Z,5.50
2023-10-18T14:20:15.815Z,6.50
2023-10-18T14:21:14.972Z,4.90
2023-10-18T14:22:14.966Z,4.90
2023-10-18T14:23:14.968Z,7.40
2023-10-18T14:24:14.962Z,7.40
2023-10-18T14:25:15.090Z,5.50
2023-10-18T14:26:14.922Z,4.30
2023-10-18T14:27:14.903Z,5.80
2023-10-18T14:28:14.904Z,6.70
2023-10-18T14:29:14.903Z,7.10
2023-10-18T14:30:14.869Z,4.90
2023-10-18T14:31:14.890Z,5.40
2023-10-18T14:32:14.866Z,8.20
2023-10-18T14:33:23.920Z,6.80
2023-10-18T14:34:15.820Z,7.00
2023-10-18T14:35:14.840Z,5.20
2023-10-18T14:36:14.852Z,6.60
2023-10-18T14:37:14.821Z,4.70
2023-10-18T14:38:14.849Z,4.70
2023-10-18T14:39:15.370Z,5.50
2023-10-18T14:40:14.792Z,6.20
2023-10-18T14:41:28.749Z,7.10
2023-10-18T14:42:15.732Z,6.30
2023-10-18T14:43:14.721Z,6.90
2023-10-18T14:44:14.715Z,6.00
2023-10-18T14:45:14.674Z,7.80
2023-10-18T14:46:14.671Z,3.80
2023-10-18T14:47:14.697Z,5.30
2023-10-18T14:48:14.762Z,5.60
2023-10-18T14:49:14.618Z,5.30
2023-10-18T14:50:14.740Z,5.50
2023-10-18T14:51:14.587Z,4.20
2023-10-18T14:52:14.592Z,6.00
2023-10-18T14:53:14.608Z,6.00
2023-10-18T14:54:14.555Z,5.30
2023-10-18T14:55:14.545Z,7.00
2023-10-18T14:56:14.569Z,6.10
2023-10-18T14:57:14.555Z,7.80
2023-10-18T14:58:14.504Z,4.90
2023-10-18T14:59:14.538Z,5.60
2023-10-18T15:00:14.480Z,4.30
2023-10-18T15:01:14.652Z,6.30
2023-10-18T15:02:14.622Z,7.10
2023-10-18T15:03:14.484Z,8.60
2023-10-18T15:04:14.450Z,5.80
2023-10-18T15:05:14.462Z,6.10
2023-10-18T15:06:14.419Z,5.50
2023-10-18T15:07:14.400Z,6.30
2023-10-18T15:08:14.419Z,7.30
2023-10-18T15:09:14.354Z,5.80
2023-10-18T15:10:14.346Z,6.70
2023-10-18T15:11:14.447Z,6.30
2023-10-18T15:12:17.302Z,4.30
2023-10-18T15:13:14.304Z,5.30
2023-10-18T15:14:14.347Z,6.30
2023-10-18T15:15:14.289Z,5.60
2023-10-18T15:16:14.284Z,6.80
2023-10-18T15:17:14.321Z,6.20
2023-10-18T15:18:14.367Z,5.30
2023-10-18T15:19:14.223Z,7.00
2023-10-18T15:20:14.300Z,5.70
2023-10-18T15:21:14.200Z,9.30
2023-10-18T15:22:14.232Z,6.90
2023-10-18T15:23:14.227Z,5.10
2023-10-18T15:24:14.166Z,5.10
2023-10-18T15:25:14.157Z,4.90
2023-10-18T15:26:14.133Z,5.40
2023-10-18T15:27:14.223Z,8.30
2023-10-18T15:28:14.109Z,5.70
2023-10-18T15:29:14.117Z,6.60
2023-10-18T15:30:14.101Z,7.20
2023-10-18T15:31:14.119Z,5.70
2023-10-18T15:32:14.094Z,5.20
2023-10-18T15:33:14.081Z,5.30
2023-10-18T15:34:14.049Z,4.70
2023-10-18T15:35:14.051Z,6.10
2023-10-18T15:36:14.013Z,5.80
2023-10-18T15:37:13.990Z,6.20
2023-10-18T15:38:14.031Z,4.80
2023-10-18T15:39:13.978Z,5.00
2023-10-18T15:40:13.954Z,5.70
2023-10-18T15:41:14.013Z,7.10
2023-10-18T15:42:13.930Z,6.90
2023-10-18T15:43:13.921Z,7.70
2023-10-18T15:44:14.002Z,7.00
2023-10-18T15:45:13.880Z,7.50
2023-10-18T15:46:13.911Z,6.30
2023-10-18T15:47:13.913Z,7.20
2023-10-18T15:48:13.858Z,7.00
2023-10-18T15:49:13.831Z,6.70
2023-10-18T15:50:13.852Z,4.60
2023-10-18T15:51:13.810Z,6.10
2023-10-18T15:52:13.816Z,5.40
2023-10-18T15:53:13.813Z,6.00
2023-10-18T15:54:13.879Z,6.00
2023-10-18T15:55:13.755Z,5.90
2023-10-18T15:56:13.801Z,7.30
2023-10-18T15:57:13.741Z,5.80
2023-10-18T15:58:13.732Z,9.00
2023-10-18T15:59:13.728Z,7.40
2023-10-18T16:00:13.705Z,8.30
2023-10-18T16:01:13.782Z,6.40
2023-10-18T16:02:13.994Z,8.00
2023-10-18T16:03:13.773Z,5.30
2023-10-18T16:04:13.820Z,5.30
2023-10-18T16:05:13.654Z,6.90
2023-10-18T16:06:15.019Z,7.10
2023-10-18T16:07:13.613Z,7.10
2023-10-18T16:08:13.592Z,6.80
2023-10-18T16:09:13.579Z,7.80
2023-10-18T16:10:13.563Z,8.30
2023-10-18T16:11:13.609Z,8.60
2023-10-18T16:12:13.555Z,8.30
2023-10-18T16:13:13.520Z,8.30
2023-10-18T16:14:13.605Z,7.40
2023-10-18T16:15:13.517Z,6.30
2023-10-18T16:16:13.612Z,6.00
2023-10-18T16:17:13.497Z,7.20
2023-10-18T16:18:13.585Z,5.90
2023-10-18T16:19:13.453Z,7.70
2023-10-18T16:20:13.518Z,7.00
2023-10-18T16:21:13.442Z,6.10
2023-10-18T16:22:13.412Z,8.10
2023-10-18T16:23:13.430Z,6.30
2023-10-18T16:24:13.383Z,7.80
2023-10-18T16:25:13.382Z,7.80
2023-10-18T16:26:13.426Z,7.80
2023-10-18T16:27:13.404Z,8.10
2023-10-18T16:28:13.331Z,5.10
2023-10-18T16:29:13.333Z,7.30
2023-10-18T16:30:13.314Z,6.40
2023-10-18T16:31:13.328Z,7.00
2023-10-18T16:32:13.373Z,8.30
2023-10-18T16:33:13.368Z,7.40
2023-10-18T16:34:13.274Z,7.60
2023-10-18T16:35:13.273Z,7.40
2023-10-18T16:36:13.220Z,7.00
2023-10-18T16:37:13.202Z,7.60
2023-10-18T16:38:13.236Z,7.50
2023-10-18T16:39:13.178Z,5.50
2023-10-18T16:40:13.192Z,6.40
2023-10-18T16:41:13.166Z,5.80
2023-10-18T16:42:13.151Z,5.10
2023-10-18T16:43:13.163Z,6.80
2023-10-18T16:44:13.169Z,5.80
2023-10-18T16:45:13.123Z,6.10
2023-10-18T16:46:13.206Z,7.50
2023-10-18T16:47:13.078Z,4.60
2023-10-18T16:48:13.162Z,7.10
2023-10-18T16:49:13.061Z,5.80
2023-10-18T16:50:13.977Z,8.60
2023-10-18T16:51:13.029Z,6.70
2023-10-18T16:52:13.011Z,8.80
2023-10-18T16:53:13.036Z,9.70
2023-10-18T16:54:13.109Z,6.60
2023-10-18T16:55:12.967Z,6.70
2023-10-18T16:56:13.104Z,5.20
2023-10-18T16:57:12.935Z,5.80
2023-10-18T16:58:12.939Z,5.20
2023-10-18T16:59:12.938Z,5.00
2023-10-18T17:00:12.903Z,7.30
2023-10-18T17:01:12.962Z,6.60
2023-10-18T17:02:12.949Z,6.30
2023-10-18T17:03:12.955Z,6.60
2023-10-18T17:04:13.031Z,8.00
2023-10-18T17:05:12.877Z,4.30
2023-10-18T17:06:12.818Z,5.70
2023-10-18T17:07:12.819Z,5.20
2023-10-18T17:08:13.983Z,5.10
2023-10-18T17:09:12.799Z,4.00
2023-10-18T17:10:12.780Z,4.30
2023-10-18T17:11:12.786Z,4.80
2023-10-18T17:13:02.931Z,6.70
2023-10-18T17:14:02.943Z,8.50
2023-10-18T17:15:02.903Z,5.50
2023-10-18T17:16:02.899Z,7.10
2023-10-18T17:17:02.927Z,6.70
2023-10-18T17:18:02.940Z,9.10
2023-10-18T17:19:02.865Z,10.40
2023-10-18T17:20:02.838Z,5.60
2023-10-18T17:21:18.367Z,6.50
2023-10-18T17:22:03.974Z,4.70
2023-10-18T17:23:02.842Z,5.90